Aérodrome d'Andernos

LFCD · Nouvelle-Aquitaine, 法国

罗盘
风向 的 Aérodrome d'Andernos 13/31
风: 0 kt, 0 beaufort


改变
0 1.000 2.000 3.000 4.000 5.000
没有观察到明显的云
METAR LFBD 030700Z AUTO 00000KT 9999 1900 R05/1400U NSC 13/13 Q1025 NOSIG

METAR Aérodrome d'Andernos - LFCD

Aérodrome d'Andernos是Andernos-les-Bains,法国中的小机场。 该机场有一条跑道: 13/31. 该领域的国际民航组织标志是LFCD.

这份报告是针对2022年10月3日 09:00, 当地时间在Bordeaux-Mérignac Airport进行的。

机场观察

可变方向的风很小或没有风。

可见度为1,9 km 或者更多。 跑道05的能见度为1.400 m 和 增加。

有没有观察到明显的云。 没有观察到天花板。

温度和风寒是13 °C。 露点为13 °C,相对湿度为100%。 海平面上的气压为1025 hPa (QNH)。

白天

今天,太阳从08:04升起,在19:41降落。 这适用于Aérodrome d'Andernos,世界夏令时可能有所不同。 当地时间与世界标准时间之间的时差为+2 小时。 夏令时目前正在进行中。

公司介绍

在这个机场,你可以找到飞行俱乐部。 这个机场上的公司有Aéroclub d'Andernos 和 HELI'S COOL 'Héliclub du Bassin d'Arcachon'。

体会

到Vliegles.nl去找飞行课程,跳伞和其他飞行体验。 浏览页面,了解Aérodrome d'Andernos附近所有可用的活动。 你也可以使用搜索功能来寻找你所在地附近的特定飞行课程、跳伞或其他飞行体验。

警示语

跑道05处的能见度为1.400 m 和 增加。

跑道

Id 标题 侧风 逆风 侧风 %
13/31 130°-310°

逆风成分最大的方向会被突出显示,并用于横风计算。 这并不一定意味着这个方向在使用。

乌云

- NSC 没有观察到明显的云

温度 & 天气

温度 13 °C
露点 13 °C
相对湿度 100%
Kp-index 3 (0-9)

白天

日出
08:03
中午
13:51
日落
19:40 (10h 15m)

小工具

你想在你的网站上有一个关于Aérodrome d'Andernos的当前航空天气(METAR)的小部件吗?

</> 显示HTML代码

我们和第三方通过cookies跟踪您在我们网站上的上网行为。如果您继续,我们认为您同意我们的cookie政策。 了解更多